sensor_id;sensor_type;location;lat;lon;timestamp;P1;durP1;ratioP1;P2;durP2;ratioP2
5491;SDS011;2768;53.540;10.224;2022-12-11T00:05:09;8.60;;;7.17;;
5491;SDS011;2768;53.540;10.224;2022-12-11T00:11:03;8.10;;;6.70;;
5491;SDS011;2768;53.540;10.224;2022-12-11T00:16:58;8.23;;;7.43;;
5491;SDS011;2768;53.540;10.224;2022-12-11T00:22:52;6.90;;;6.20;;
5491;SDS011;2768;53.540;10.224;2022-12-11T00:28:46;7.33;;;6.53;;
5491;SDS011;2768;53.540;10.224;2022-12-11T00:34:41;7.53;;;6.77;;
5491;SDS011;2768;53.540;10.224;2022-12-11T00:40:34;9.20;;;7.73;;
5491;SDS011;2768;53.540;10.224;2022-12-11T00:46:28;9.57;;;7.17;;
5491;SDS011;2768;53.540;10.224;2022-12-11T00:52:24;8.37;;;6.40;;
5491;SDS011;2768;53.540;10.224;2022-12-11T00:58:17;8.80;;;7.53;;
5491;SDS011;2768;53.540;10.224;2022-12-11T01:04:11;9.23;;;7.90;;
5491;SDS011;2768;53.540;10.224;2022-12-11T01:10:05;8.80;;;7.80;;
5491;SDS011;2768;53.540;10.224;2022-12-11T01:16:18;9.80;;;6.43;;
5491;SDS011;2768;53.540;10.224;2022-12-11T01:22:11;7.93;;;6.13;;
5491;SDS011;2768;53.540;10.224;2022-12-11T01:28:06;9.80;;;6.33;;
5491;SDS011;2768;53.540;10.224;2022-12-11T01:34:00;7.23;;;6.53;;
5491;SDS011;2768;53.540;10.224;2022-12-11T01:39:53;6.67;;;5.93;;
5491;SDS011;2768;53.540;10.224;2022-12-11T01:45:48;7.00;;;6.30;;
5491;SDS011;2768;53.540;10.224;2022-12-11T01:51:43;7.03;;;6.27;;
5491;SDS011;2768;53.540;10.224;2022-12-11T01:57:42;7.60;;;6.30;;
5491;SDS011;2768;53.540;10.224;2022-12-11T02:03:41;8.40;;;6.90;;
5491;SDS011;2768;53.540;10.224;2022-12-11T02:09:34;8.67;;;6.90;;
5491;SDS011;2768;53.540;10.224;2022-12-11T02:15:32;8.40;;;6.80;;
5491;SDS011;2768;53.540;10.224;2022-12-11T02:21:31;7.47;;;6.67;;
5491;SDS011;2768;53.540;10.224;2022-12-11T02:27:35;7.73;;;6.57;;
5491;SDS011;2768;53.540;10.224;2022-12-11T02:33:35;9.10;;;7.20;;
5491;SDS011;2768;53.540;10.224;2022-12-11T02:39:35;8.20;;;6.83;;
5491;SDS011;2768;53.540;10.224;2022-12-11T02:45:32;8.20;;;6.73;;
5491;SDS011;2768;53.540;10.224;2022-12-11T02:51:29;8.20;;;6.93;;
5491;SDS011;2768;53.540;10.224;2022-12-11T02:57:28;9.43;;;7.20;;
5491;SDS011;2768;53.540;10.224;2022-12-11T03:03:29;7.50;;;6.27;;
5491;SDS011;2768;53.540;10.224;2022-12-11T03:09:24;7.50;;;6.70;;
5491;SDS011;2768;53.540;10.224;2022-12-11T03:15:19;7.60;;;6.70;;
5491;SDS011;2768;53.540;10.224;2022-12-11T03:21:17;7.77;;;6.93;;
5491;SDS011;2768;53.540;10.224;2022-12-11T03:27:18;8.37;;;6.57;;
5491;SDS011;2768;53.540;10.224;2022-12-11T03:33:19;7.47;;;6.20;;
5491;SDS011;2768;53.540;10.224;2022-12-11T03:39:18;7.13;;;6.30;;
5491;SDS011;2768;53.540;10.224;2022-12-11T03:45:17;8.60;;;6.73;;
5491;SDS011;2768;53.540;10.224;2022-12-11T03:51:12;6.90;;;6.17;;
5491;SDS011;2768;53.540;10.224;2022-12-11T03:57:06;9.20;;;6.37;;
5491;SDS011;2768;53.540;10.224;2022-12-11T04:03:05;8.80;;;7.13;;
5491;SDS011;2768;53.540;10.224;2022-12-11T04:09:08;8.30;;;6.30;;
5491;SDS011;2768;53.540;10.224;2022-12-11T04:15:01;7.00;;;6.30;;
5491;SDS011;2768;53.540;10.224;2022-12-11T04:20:56;8.57;;;7.10;;
5491;SDS011;2768;53.540;10.224;2022-12-11T04:27:07;8.37;;;7.27;;
5491;SDS011;2768;53.540;10.224;2022-12-11T04:33:01;7.47;;;6.67;;
5491;SDS011;2768;53.540;10.224;2022-12-11T04:38:56;9.27;;;7.53;;
5491;SDS011;2768;53.540;10.224;2022-12-11T04:44:49;7.37;;;6.37;;
5491;SDS011;2768;53.540;10.224;2022-12-11T04:50:43;8.03;;;7.20;;
5491;SDS011;2768;53.540;10.224;2022-12-11T04:56:38;8.87;;;7.37;;
5491;SDS011;2768;53.540;10.224;2022-12-11T05:02:33;8.77;;;7.50;;
5491;SDS011;2768;53.540;10.224;2022-12-11T05:08:27;13.00;;;9.07;;
5491;SDS011;2768;53.540;10.224;2022-12-11T05:14:22;10.10;;;8.40;;
5491;SDS011;2768;53.540;10.224;2022-12-11T05:20:18;9.37;;;7.33;;
5491;SDS011;2768;53.540;10.224;2022-12-11T05:26:13;10.63;;;8.33;;
5491;SDS011;2768;53.540;10.224;2022-12-11T05:32:09;9.67;;;8.50;;
5491;SDS011;2768;53.540;10.224;2022-12-11T05:38:02;10.70;;;8.50;;
5491;SDS011;2768;53.540;10.224;2022-12-11T05:43:56;10.63;;;8.47;;
5491;SDS011;2768;53.540;10.224;2022-12-11T05:49:51;10.37;;;8.10;;
5491;SDS011;2768;53.540;10.224;2022-12-11T05:55:44;9.50;;;7.80;;
5491;SDS011;2768;53.540;10.224;2022-12-11T06:01:39;11.40;;;8.57;;
5491;SDS011;2768;53.540;10.224;2022-12-11T06:07:36;12.17;;;9.30;;
5491;SDS011;2768;53.540;10.224;2022-12-11T06:13:29;10.27;;;8.50;;
5491;SDS011;2768;53.540;10.224;2022-12-11T06:19:23;11.03;;;9.17;;
5491;SDS011;2768;53.540;10.224;2022-12-11T06:25:19;11.27;;;8.47;;
5491;SDS011;2768;53.540;10.224;2022-12-11T06:31:13;10.70;;;9.00;;
5491;SDS011;2768;53.540;10.224;2022-12-11T06:37:07;13.33;;;9.17;;
5491;SDS011;2768;53.540;10.224;2022-12-11T06:43:01;11.20;;;8.90;;
5491;SDS011;2768;53.540;10.224;2022-12-11T06:48:55;11.03;;;8.40;;
5491;SDS011;2768;53.540;10.224;2022-12-11T06:54:49;9.00;;;8.00;;
5491;SDS011;2768;53.540;10.224;2022-12-11T07:00:44;11.33;;;8.73;;
5491;SDS011;2768;53.540;10.224;2022-12-11T07:06:37;11.10;;;9.50;;
5491;SDS011;2768;53.540;10.224;2022-12-11T07:12:31;9.30;;;8.27;;
5491;SDS011;2768;53.540;10.224;2022-12-11T07:18:26;9.53;;;7.50;;
5491;SDS011;2768;53.540;10.224;2022-12-11T07:24:19;10.13;;;7.97;;
5491;SDS011;2768;53.540;10.224;2022-12-11T07:30:12;10.27;;;7.43;;
5491;SDS011;2768;53.540;10.224;2022-12-11T07:36:09;11.20;;;8.50;;
5491;SDS011;2768;53.540;10.224;2022-12-11T07:42:04;10.60;;;8.40;;
5491;SDS011;2768;53.540;10.224;2022-12-11T07:47:58;8.90;;;7.47;;
5491;SDS011;2768;53.540;10.224;2022-12-11T07:53:54;10.33;;;7.10;;
5491;SDS011;2768;53.540;10.224;2022-12-11T07:59:48;9.33;;;7.57;;
5491;SDS011;2768;53.540;10.224;2022-12-11T08:05:45;9.77;;;7.60;;
5491;SDS011;2768;53.540;10.224;2022-12-11T08:11:41;9.33;;;7.27;;
5491;SDS011;2768;53.540;10.224;2022-12-11T08:17:38;9.47;;;7.97;;
5491;SDS011;2768;53.540;10.224;2022-12-11T08:31:12;7.87;;;6.07;;
5491;SDS011;2768;53.540;10.224;2022-12-11T08:37:06;8.80;;;6.43;;
5491;SDS011;2768;53.540;10.224;2022-12-11T08:42:59;7.97;;;6.47;;
5491;SDS011;2768;53.540;10.224;2022-12-11T08:48:54;8.27;;;6.57;;
5491;SDS011;2768;53.540;10.224;2022-12-11T08:54:48;7.50;;;6.70;;
5491;SDS011;2768;53.540;10.224;2022-12-11T09:00:41;10.67;;;7.63;;
5491;SDS011;2768;53.540;10.224;2022-12-11T09:06:36;10.80;;;8.83;;
5491;SDS011;2768;53.540;10.224;2022-12-11T09:12:29;10.10;;;8.20;;
5491;SDS011;2768;53.540;10.224;2022-12-11T09:18:24;9.00;;;7.70;;
5491;SDS011;2768;53.540;10.224;2022-12-11T09:24:19;13.03;;;8.00;;
5491;SDS011;2768;53.540;10.224;2022-12-11T09:30:13;9.83;;;8.03;;
5491;SDS011;2768;53.540;10.224;2022-12-11T09:36:07;11.20;;;8.37;;
5491;SDS011;2768;53.540;10.224;2022-12-11T09:42:03;10.23;;;7.90;;
5491;SDS011;2768;53.540;10.224;2022-12-11T09:48:00;13.13;;;9.43;;
5491;SDS011;2768;53.540;10.224;2022-12-11T09:53:54;9.73;;;7.70;;
5491;SDS011;2768;53.540;10.224;2022-12-11T09:59:57;9.40;;;7.23;;
5491;SDS011;2768;53.540;10.224;2022-12-11T10:06:02;12.60;;;9.30;;
5491;SDS011;2768;53.540;10.224;2022-12-11T10:12:05;12.80;;;8.67;;
5491;SDS011;2768;53.540;10.224;2022-12-11T10:18:10;10.93;;;8.60;;
5491;SDS011;2768;53.540;10.224;2022-12-11T10:24:09;9.40;;;7.80;;
5491;SDS011;2768;53.540;10.224;2022-12-11T10:30:29;9.90;;;7.93;;
5491;SDS011;2768;53.540;10.224;2022-12-11T10:36:30;11.50;;;9.17;;
5491;SDS011;2768;53.540;10.224;2022-12-11T10:42:27;10.70;;;8.93;;
5491;SDS011;2768;53.540;10.224;2022-12-11T10:48:20;11.87;;;7.63;;
5491;SDS011;2768;53.540;10.224;2022-12-11T10:54:26;11.60;;;9.33;;
5491;SDS011;2768;53.540;10.224;2022-12-11T11:00:30;11.63;;;8.17;;
5491;SDS011;2768;53.540;10.224;2022-12-11T11:06:27;9.20;;;7.70;;
5491;SDS011;2768;53.540;10.224;2022-12-11T11:12:22;11.70;;;8.10;;
5491;SDS011;2768;53.540;10.224;2022-12-11T11:18:19;10.73;;;8.17;;
5491;SDS011;2768;53.540;10.224;2022-12-11T11:24:21;10.77;;;7.40;;
5491;SDS011;2768;53.540;10.224;2022-12-11T11:30:22;10.90;;;8.13;;
5491;SDS011;2768;53.540;10.224;2022-12-11T11:36:18;9.37;;;8.17;;
5491;SDS011;2768;53.540;10.224;2022-12-11T11:42:14;10.13;;;8.70;;
5491;SDS011;2768;53.540;10.224;2022-12-11T11:48:19;11.43;;;8.80;;
5491;SDS011;2768;53.540;10.224;2022-12-11T11:54:23;10.93;;;8.33;;
5491;SDS011;2768;53.540;10.224;2022-12-11T12:00:23;10.40;;;9.00;;
5491;SDS011;2768;53.540;10.224;2022-12-11T12:06:29;11.10;;;9.00;;
5491;SDS011;2768;53.540;10.224;2022-12-11T12:12:36;10.23;;;8.03;;
5491;SDS011;2768;53.540;10.224;2022-12-11T12:18:37;9.53;;;7.80;;
5491;SDS011;2768;53.540;10.224;2022-12-11T12:24:44;11.53;;;7.73;;
5491;SDS011;2768;53.540;10.224;2022-12-11T12:30:49;9.70;;;7.40;;
5491;SDS011;2768;53.540;10.224;2022-12-11T12:36:53;8.80;;;7.90;;
5491;SDS011;2768;53.540;10.224;2022-12-11T12:42:55;11.90;;;8.60;;
5491;SDS011;2768;53.540;10.224;2022-12-11T12:48:56;8.57;;;7.63;;
5491;SDS011;2768;53.540;10.224;2022-12-11T12:54:53;9.43;;;7.70;;
5491;SDS011;2768;53.540;10.224;2022-12-11T13:01:13;9.70;;;7.50;;
5491;SDS011;2768;53.540;10.224;2022-12-11T13:07:14;8.97;;;7.33;;
5491;SDS011;2768;53.540;10.224;2022-12-11T13:13:28;9.63;;;7.90;;
5491;SDS011;2768;53.540;10.224;2022-12-11T13:19:28;8.27;;;7.43;;
5491;SDS011;2768;53.540;10.224;2022-12-11T13:25:43;9.30;;;7.27;;
5491;SDS011;2768;53.540;10.224;2022-12-11T13:31:42;11.40;;;8.93;;
5491;SDS011;2768;53.540;10.224;2022-12-11T13:37:39;11.80;;;9.27;;
5491;SDS011;2768;53.540;10.224;2022-12-11T13:43:35;12.27;;;8.33;;
5491;SDS011;2768;53.540;10.224;2022-12-11T13:49:32;12.60;;;9.20;;
5491;SDS011;2768;53.540;10.224;2022-12-11T13:55:30;14.13;;;8.30;;
5491;SDS011;2768;53.540;10.224;2022-12-11T14:01:25;11.93;;;8.23;;
5491;SDS011;2768;53.540;10.224;2022-12-11T14:07:22;12.37;;;9.03;;
5491;SDS011;2768;53.540;10.224;2022-12-11T14:13:21;12.33;;;8.80;;
5491;SDS011;2768;53.540;10.224;2022-12-11T14:19:17;9.50;;;8.50;;
5491;SDS011;2768;53.540;10.224;2022-12-11T14:25:17;12.10;;;8.90;;
5491;SDS011;2768;53.540;10.224;2022-12-11T14:31:16;11.37;;;8.40;;
5491;SDS011;2768;53.540;10.224;2022-12-11T14:37:15;11.93;;;9.30;;
5491;SDS011;2768;53.540;10.224;2022-12-11T14:43:12;12.50;;;9.23;;
5491;SDS011;2768;53.540;10.224;2022-12-11T14:49:15;11.80;;;8.53;;
5491;SDS011;2768;53.540;10.224;2022-12-11T14:55:15;10.40;;;8.40;;
5491;SDS011;2768;53.540;10.224;2022-12-11T15:01:20;10.80;;;8.80;;
5491;SDS011;2768;53.540;10.224;2022-12-11T15:07:18;11.13;;;8.40;;
5491;SDS011;2768;53.540;10.224;2022-12-11T15:13:13;9.30;;;7.60;;
5491;SDS011;2768;53.540;10.224;2022-12-11T15:19:15;13.03;;;8.97;;
5491;SDS011;2768;53.540;10.224;2022-12-11T15:25:18;12.70;;;9.27;;
5491;SDS011;2768;53.540;10.224;2022-12-11T15:31:23;11.23;;;8.27;;
5491;SDS011;2768;53.540;10.224;2022-12-11T15:37:22;11.20;;;8.77;;
5491;SDS011;2768;53.540;10.224;2022-12-11T15:43:17;11.13;;;8.40;;
5491;SDS011;2768;53.540;10.224;2022-12-11T15:49:11;10.13;;;8.80;;
5491;SDS011;2768;53.540;10.224;2022-12-11T15:55:06;9.70;;;8.30;;
5491;SDS011;2768;53.540;10.224;2022-12-11T16:01:03;11.30;;;9.40;;
5491;SDS011;2768;53.540;10.224;2022-12-11T16:06:56;13.60;;;10.63;;
5491;SDS011;2768;53.540;10.224;2022-12-11T16:12:50;12.40;;;8.73;;
5491;SDS011;2768;53.540;10.224;2022-12-11T16:18:44;12.63;;;9.87;;
5491;SDS011;2768;53.540;10.224;2022-12-11T16:24:38;12.93;;;10.47;;
5491;SDS011;2768;53.540;10.224;2022-12-11T16:30:33;15.70;;;11.53;;
5491;SDS011;2768;53.540;10.224;2022-12-11T16:36:29;15.33;;;11.60;;
5491;SDS011;2768;53.540;10.224;2022-12-11T16:42:22;17.33;;;13.03;;
5491;SDS011;2768;53.540;10.224;2022-12-11T16:48:16;16.07;;;11.80;;
5491;SDS011;2768;53.540;10.224;2022-12-11T16:54:11;14.90;;;12.00;;
5491;SDS011;2768;53.540;10.224;2022-12-11T17:00:05;13.40;;;11.63;;
5491;SDS011;2768;53.540;10.224;2022-12-11T17:06:04;17.67;;;13.53;;
5491;SDS011;2768;53.540;10.224;2022-12-11T17:12:00;16.43;;;13.50;;
5491;SDS011;2768;53.540;10.224;2022-12-11T17:17:53;18.27;;;14.60;;
5491;SDS011;2768;53.540;10.224;2022-12-11T17:23:47;15.53;;;10.40;;
5491;SDS011;2768;53.540;10.224;2022-12-11T17:29:42;14.03;;;11.17;;
5491;SDS011;2768;53.540;10.224;2022-12-11T17:35:36;14.10;;;10.93;;
5491;SDS011;2768;53.540;10.224;2022-12-11T17:41:29;17.37;;;11.80;;
5491;SDS011;2768;53.540;10.224;2022-12-11T17:47:24;15.87;;;11.70;;
5491;SDS011;2768;53.540;10.224;2022-12-11T17:53:18;13.33;;;11.47;;
5491;SDS011;2768;53.540;10.224;2022-12-11T17:59:13;16.10;;;12.20;;
5491;SDS011;2768;53.540;10.224;2022-12-11T18:05:07;16.47;;;10.57;;
5491;SDS011;2768;53.540;10.224;2022-12-11T18:11:05;16.10;;;11.83;;
5491;SDS011;2768;53.540;10.224;2022-12-11T18:16:59;14.77;;;11.70;;
5491;SDS011;2768;53.540;10.224;2022-12-11T18:22:54;16.27;;;13.00;;
5491;SDS011;2768;53.540;10.224;2022-12-11T18:28:48;18.83;;;12.90;;
5491;SDS011;2768;53.540;10.224;2022-12-11T18:34:42;16.47;;;13.30;;
5491;SDS011;2768;53.540;10.224;2022-12-11T18:40:37;17.93;;;13.97;;
5491;SDS011;2768;53.540;10.224;2022-12-11T18:46:31;21.23;;;15.87;;
5491;SDS011;2768;53.540;10.224;2022-12-11T18:52:24;22.67;;;17.03;;
5491;SDS011;2768;53.540;10.224;2022-12-11T18:58:21;16.47;;;13.60;;
5491;SDS011;2768;53.540;10.224;2022-12-11T19:04:14;20.87;;;15.80;;
5491;SDS011;2768;53.540;10.224;2022-12-11T19:10:08;22.07;;;15.03;;
5491;SDS011;2768;53.540;10.224;2022-12-11T19:16:04;21.33;;;16.63;;
5491;SDS011;2768;53.540;10.224;2022-12-11T19:21:57;16.70;;;14.20;;
5491;SDS011;2768;53.540;10.224;2022-12-11T19:27:50;20.50;;;15.67;;
5491;SDS011;2768;53.540;10.224;2022-12-11T19:33:49;21.70;;;14.93;;
5491;SDS011;2768;53.540;10.224;2022-12-11T19:39:42;20.10;;;15.43;;
5491;SDS011;2768;53.540;10.224;2022-12-11T19:45:35;20.50;;;15.33;;
5491;SDS011;2768;53.540;10.224;2022-12-11T19:51:31;17.97;;;13.80;;
5491;SDS011;2768;53.540;10.224;2022-12-11T19:57:25;21.20;;;15.10;;
5491;SDS011;2768;53.540;10.224;2022-12-11T20:03:18;22.47;;;16.30;;
5491;SDS011;2768;53.540;10.224;2022-12-11T20:09:13;21.90;;;15.37;;
5491;SDS011;2768;53.540;10.224;2022-12-11T20:15:07;19.60;;;13.27;;
5491;SDS011;2768;53.540;10.224;2022-12-11T20:21:03;21.00;;;14.80;;
5491;SDS011;2768;53.540;10.224;2022-12-11T20:26:59;18.67;;;14.20;;
5491;SDS011;2768;53.540;10.224;2022-12-11T20:32:52;22.67;;;15.40;;
5491;SDS011;2768;53.540;10.224;2022-12-11T20:38:46;20.10;;;15.63;;
5491;SDS011;2768;53.540;10.224;2022-12-11T20:44:41;23.17;;;15.90;;
5491;SDS011;2768;53.540;10.224;2022-12-11T20:50:39;22.03;;;15.50;;
5491;SDS011;2768;53.540;10.224;2022-12-11T20:56:33;21.83;;;15.90;;
5491;SDS011;2768;53.540;10.224;2022-12-11T21:02:28;19.87;;;14.53;;
5491;SDS011;2768;53.540;10.224;2022-12-11T21:08:22;22.90;;;16.17;;
5491;SDS011;2768;53.540;10.224;2022-12-11T21:14:16;20.00;;;15.30;;
5491;SDS011;2768;53.540;10.224;2022-12-11T21:20:12;23.93;;;16.63;;
5491;SDS011;2768;53.540;10.224;2022-12-11T21:26:05;21.33;;;15.53;;
5491;SDS011;2768;53.540;10.224;2022-12-11T21:31:58;22.00;;;16.77;;
5491;SDS011;2768;53.540;10.224;2022-12-11T21:37:53;21.67;;;16.30;;
5491;SDS011;2768;53.540;10.224;2022-12-11T21:43:48;21.73;;;15.33;;
5491;SDS011;2768;53.540;10.224;2022-12-11T21:50:03;18.73;;;14.40;;
5491;SDS011;2768;53.540;10.224;2022-12-11T21:55:57;21.43;;;16.27;;
5491;SDS011;2768;53.540;10.224;2022-12-11T22:01:51;20.53;;;14.40;;
5491;SDS011;2768;53.540;10.224;2022-12-11T22:07:44;20.87;;;15.60;;
5491;SDS011;2768;53.540;10.224;2022-12-11T22:13:40;20.90;;;15.00;;
5491;SDS011;2768;53.540;10.224;2022-12-11T22:19:33;24.83;;;16.70;;
5491;SDS011;2768;53.540;10.224;2022-12-11T22:25:27;20.43;;;14.53;;
5491;SDS011;2768;53.540;10.224;2022-12-11T22:31:23;19.83;;;14.67;;
5491;SDS011;2768;53.540;10.224;2022-12-11T22:37:18;23.17;;;16.50;;
5491;SDS011;2768;53.540;10.224;2022-12-11T22:43:11;18.30;;;14.13;;
5491;SDS011;2768;53.540;10.224;2022-12-11T22:49:06;20.40;;;15.30;;
5491;SDS011;2768;53.540;10.224;2022-12-11T22:54:59;20.10;;;15.03;;
5491;SDS011;2768;53.540;10.224;2022-12-11T23:00:53;23.77;;;15.00;;
5491;SDS011;2768;53.540;10.224;2022-12-11T23:06:48;19.37;;;13.40;;
5491;SDS011;2768;53.540;10.224;2022-12-11T23:12:41;21.13;;;15.33;;
5491;SDS011;2768;53.540;10.224;2022-12-11T23:18:35;23.30;;;15.80;;
5491;SDS011;2768;53.540;10.224;2022-12-11T23:24:30;20.27;;;15.27;;
5491;SDS011;2768;53.540;10.224;2022-12-11T23:30:24;22.00;;;16.60;;
5491;SDS011;2768;53.540;10.224;2022-12-11T23:36:18;24.47;;;15.93;;
5491;SDS011;2768;53.540;10.224;2022-12-11T23:42:13;20.60;;;14.90;;
5491;SDS011;2768;53.540;10.224;2022-12-11T23:48:06;20.97;;;15.63;;
5491;SDS011;2768;53.540;10.224;2022-12-11T23:54:00;19.40;;;14.67;;
5491;SDS011;2768;53.540;10.224;2022-12-11T23:59:55;22.20;;;15.87;;
